sensor_id;sensor_type;location;lat;lon;timestamp;temperature;humidity
9699;DHT22;10089;47.876;8.346;2022-08-01T00:00:33;18.60;99.90
9699;DHT22;10089;47.876;8.346;2022-08-01T00:02:59;18.60;99.90
9699;DHT22;10089;47.876;8.346;2022-08-01T00:05:24;18.60;99.90
9699;DHT22;10089;47.876;8.346;2022-08-01T00:07:50;18.60;99.90
9699;DHT22;10089;47.876;8.346;2022-08-01T00:10:16;18.60;99.90
9699;DHT22;10089;47.876;8.346;2022-08-01T00:12:41;18.70;99.90
9699;DHT22;10089;47.876;8.346;2022-08-01T00:15:08;18.80;99.90
9699;DHT22;10089;47.876;8.346;2022-08-01T00:17:38;18.70;99.90
9699;DHT22;10089;47.876;8.346;2022-08-01T00:20:04;18.70;99.90
9699;DHT22;10089;47.876;8.346;2022-08-01T00:22:30;18.70;99.90
9699;DHT22;10089;47.876;8.346;2022-08-01T00:24:56;18.80;99.90
9699;DHT22;10089;47.876;8.346;2022-08-01T00:27:22;17.50;99.90
9699;DHT22;10089;47.876;8.346;2022-08-01T00:29:47;18.70;99.90
9699;DHT22;10089;47.876;8.346;2022-08-01T00:32:13;18.70;99.90
9699;DHT22;10089;47.876;8.346;2022-08-01T00:34:41;18.70;99.90
9699;DHT22;10089;47.876;8.346;2022-08-01T00:37:07;18.70;99.90
9699;DHT22;10089;47.876;8.346;2022-08-01T00:39:32;18.70;99.90
9699;DHT22;10089;47.876;8.346;2022-08-01T00:41:59;18.60;99.90
9699;DHT22;10089;47.876;8.346;2022-08-01T00:44:24;18.60;99.90
9699;DHT22;10089;47.876;8.346;2022-08-01T00:46:50;18.60;99.90
9699;DHT22;10089;47.876;8.346;2022-08-01T00:49:18;18.50;99.90
9699;DHT22;10089;47.876;8.346;2022-08-01T00:51:44;18.40;99.90
9699;DHT22;10089;47.876;8.346;2022-08-01T00:54:10;18.40;99.90
9699;DHT22;10089;47.876;8.346;2022-08-01T00:56:35;18.30;99.90
9699;DHT22;10089;47.876;8.346;2022-08-01T00:59:01;18.20;99.90
9699;DHT22;10089;47.876;8.346;2022-08-01T01:01:28;18.20;99.90
9699;DHT22;10089;47.876;8.346;2022-08-01T01:03:54;18.20;99.90
9699;DHT22;10089;47.876;8.346;2022-08-01T01:08:58;18.10;99.90
9699;DHT22;10089;47.876;8.346;2022-08-01T01:11:40;18.00;99.90
9699;DHT22;10089;47.876;8.346;2022-08-01T01:16:50;18.00;99.90
9699;DHT22;10089;47.876;8.346;2022-08-01T01:19:19;17.90;99.90
9699;DHT22;10089;47.876;8.346;2022-08-01T01:29:21;17.60;99.90
9699;DHT22;10089;47.876;8.346;2022-08-01T01:34:36;17.20;99.90
9699;DHT22;10089;47.876;8.346;2022-08-01T01:37:02;17.30;99.90
9699;DHT22;10089;47.876;8.346;2022-08-01T01:39:30;17.10;99.90
9699;DHT22;10089;47.876;8.346;2022-08-01T01:41:56;17.10;99.90
9699;DHT22;10089;47.876;8.346;2022-08-01T01:44:22;17.00;99.90
9699;DHT22;10089;47.876;8.346;2022-08-01T01:46:49;16.90;99.90
9699;DHT22;10089;47.876;8.346;2022-08-01T01:49:15;16.90;99.90
9699;DHT22;10089;47.876;8.346;2022-08-01T01:51:42;16.80;99.90
9699;DHT22;10089;47.876;8.346;2022-08-01T01:54:08;16.70;99.90
9699;DHT22;10089;47.876;8.346;2022-08-01T01:56:35;16.60;99.90
9699;DHT22;10089;47.876;8.346;2022-08-01T01:59:15;16.80;99.90
9699;DHT22;10089;47.876;8.346;2022-08-01T02:01:41;16.80;99.90
9699;DHT22;10089;47.876;8.346;2022-08-01T02:04:07;16.70;99.90
9699;DHT22;10089;47.876;8.346;2022-08-01T02:06:34;16.50;99.90
9699;DHT22;10089;47.876;8.346;2022-08-01T02:09:00;16.50;99.90
9699;DHT22;10089;47.876;8.346;2022-08-01T02:11:26;16.50;99.90
9699;DHT22;10089;47.876;8.346;2022-08-01T02:16:17;16.40;99.90
9699;DHT22;10089;47.876;8.346;2022-08-01T02:18:44;16.50;99.90
9699;DHT22;10089;47.876;8.346;2022-08-01T02:21:10;16.50;99.90
9699;DHT22;10089;47.876;8.346;2022-08-01T02:23:37;16.50;99.90
9699;DHT22;10089;47.876;8.346;2022-08-01T02:26:07;16.40;99.90
9699;DHT22;10089;47.876;8.346;2022-08-01T02:28:35;16.40;99.90
9699;DHT22;10089;47.876;8.346;2022-08-01T02:31:02;16.30;99.90
9699;DHT22;10089;47.876;8.346;2022-08-01T02:33:30;16.30;99.90
9699;DHT22;10089;47.876;8.346;2022-08-01T02:35:58;16.30;99.90
9699;DHT22;10089;47.876;8.346;2022-08-01T02:38:26;16.30;99.90
9699;DHT22;10089;47.876;8.346;2022-08-01T02:40:52;16.30;99.90
9699;DHT22;10089;47.876;8.346;2022-08-01T02:43:20;16.30;99.90
9699;DHT22;10089;47.876;8.346;2022-08-01T02:45:49;16.40;99.90
9699;DHT22;10089;47.876;8.346;2022-08-01T02:48:17;16.30;99.90
9699;DHT22;10089;47.876;8.346;2022-08-01T02:50:45;16.30;99.90
9699;DHT22;10089;47.876;8.346;2022-08-01T02:53:12;16.30;99.90
9699;DHT22;10089;47.876;8.346;2022-08-01T02:55:38;16.20;99.90
9699;DHT22;10089;47.876;8.346;2022-08-01T02:58:05;16.20;99.90
9699;DHT22;10089;47.876;8.346;2022-08-01T03:00:32;16.20;99.90
9699;DHT22;10089;47.876;8.346;2022-08-01T03:02:58;16.20;99.90
9699;DHT22;10089;47.876;8.346;2022-08-01T03:05:25;16.30;99.90
9699;DHT22;10089;47.876;8.346;2022-08-01T03:07:52;16.30;99.90
9699;DHT22;10089;47.876;8.346;2022-08-01T03:10:19;16.30;99.90
9699;DHT22;10089;47.876;8.346;2022-08-01T03:12:45;16.30;99.90
9699;DHT22;10089;47.876;8.346;2022-08-01T03:15:10;16.40;99.90
9699;DHT22;10089;47.876;8.346;2022-08-01T03:17:38;16.40;99.90
9699;DHT22;10089;47.876;8.346;2022-08-01T03:20:04;16.40;99.90
9699;DHT22;10089;47.876;8.346;2022-08-01T03:22:30;16.40;99.90
9699;DHT22;10089;47.876;8.346;2022-08-01T03:24:57;16.50;99.90
9699;DHT22;10089;47.876;8.346;2022-08-01T03:27:24;16.50;99.90
9699;DHT22;10089;47.876;8.346;2022-08-01T03:29:50;16.40;99.90
9699;DHT22;10089;47.876;8.346;2022-08-01T03:32:16;16.40;99.90
9699;DHT22;10089;47.876;8.346;2022-08-01T03:34:43;16.40;99.90
9699;DHT22;10089;47.876;8.346;2022-08-01T03:37:10;16.20;99.90
9699;DHT22;10089;47.876;8.346;2022-08-01T03:39:43;15.70;99.90
9699;DHT22;10089;47.876;8.346;2022-08-01T03:42:12;15.40;99.90
9699;DHT22;10089;47.876;8.346;2022-08-01T03:44:39;15.40;99.90
9699;DHT22;10089;47.876;8.346;2022-08-01T03:47:07;15.30;99.90
9699;DHT22;10089;47.876;8.346;2022-08-01T03:49:35;15.30;99.90
9699;DHT22;10089;47.876;8.346;2022-08-01T03:52:03;15.40;99.90
9699;DHT22;10089;47.876;8.346;2022-08-01T03:54:31;15.50;99.90
9699;DHT22;10089;47.876;8.346;2022-08-01T03:56:58;15.50;99.90
9699;DHT22;10089;47.876;8.346;2022-08-01T03:59:25;15.60;99.90
9699;DHT22;10089;47.876;8.346;2022-08-01T04:01:50;15.70;99.90
9699;DHT22;10089;47.876;8.346;2022-08-01T04:04:16;15.70;99.90
9699;DHT22;10089;47.876;8.346;2022-08-01T04:06:42;15.70;99.90
9699;DHT22;10089;47.876;8.346;2022-08-01T04:09:10;15.60;99.90
9699;DHT22;10089;47.876;8.346;2022-08-01T04:11:37;15.60;99.90
9699;DHT22;10089;47.876;8.346;2022-08-01T04:14:03;15.60;99.90
9699;DHT22;10089;47.876;8.346;2022-08-01T04:16:29;15.50;99.90
9699;DHT22;10089;47.876;8.346;2022-08-01T04:18:54;15.50;99.90
9699;DHT22;10089;47.876;8.346;2022-08-01T04:21:22;15.50;99.90
9699;DHT22;10089;47.876;8.346;2022-08-01T04:23:48;15.50;99.90
9699;DHT22;10089;47.876;8.346;2022-08-01T04:26:14;15.60;99.90
9699;DHT22;10089;47.876;8.346;2022-08-01T04:28:41;15.70;99.90
9699;DHT22;10089;47.876;8.346;2022-08-01T04:31:08;15.60;99.90
9699;DHT22;10089;47.876;8.346;2022-08-01T04:33:38;15.60;99.90
9699;DHT22;10089;47.876;8.346;2022-08-01T04:36:05;15.70;99.90
9699;DHT22;10089;47.876;8.346;2022-08-01T04:38:32;15.70;99.90
9699;DHT22;10089;47.876;8.346;2022-08-01T04:40:58;15.70;99.90
9699;DHT22;10089;47.876;8.346;2022-08-01T04:43:24;15.70;99.90
9699;DHT22;10089;47.876;8.346;2022-08-01T04:45:50;14.90;99.90
9699;DHT22;10089;47.876;8.346;2022-08-01T04:48:19;15.70;99.90
9699;DHT22;10089;47.876;8.346;2022-08-01T04:50:45;15.60;99.90
9699;DHT22;10089;47.876;8.346;2022-08-01T04:53:15;15.50;99.90
9699;DHT22;10089;47.876;8.346;2022-08-01T04:55:42;15.50;99.90
9699;DHT22;10089;47.876;8.346;2022-08-01T04:58:08;15.70;99.90
9699;DHT22;10089;47.876;8.346;2022-08-01T05:00:34;15.80;99.90
9699;DHT22;10089;47.876;8.346;2022-08-01T05:03:00;15.90;99.90
9699;DHT22;10089;47.876;8.346;2022-08-01T05:05:25;15.90;99.90
9699;DHT22;10089;47.876;8.346;2022-08-01T05:07:51;15.80;99.90
9699;DHT22;10089;47.876;8.346;2022-08-01T05:10:17;15.90;99.90
9699;DHT22;10089;47.876;8.346;2022-08-01T05:12:42;16.00;99.90
9699;DHT22;10089;47.876;8.346;2022-08-01T05:15:08;16.10;99.90
9699;DHT22;10089;47.876;8.346;2022-08-01T05:17:33;16.20;99.90
9699;DHT22;10089;47.876;8.346;2022-08-01T05:19:59;16.40;99.90
9699;DHT22;10089;47.876;8.346;2022-08-01T05:22:25;16.80;99.90
9699;DHT22;10089;47.876;8.346;2022-08-01T05:24:51;17.40;99.90
9699;DHT22;10089;47.876;8.346;2022-08-01T05:27:18;17.90;99.90
9699;DHT22;10089;47.876;8.346;2022-08-01T05:29:43;18.50;99.90
9699;DHT22;10089;47.876;8.346;2022-08-01T05:32:09;19.10;99.90
9699;DHT22;10089;47.876;8.346;2022-08-01T05:34:35;19.70;99.90
9699;DHT22;10089;47.876;8.346;2022-08-01T05:37:01;19.70;99.90
9699;DHT22;10089;47.876;8.346;2022-08-01T05:39:27;20.30;99.90
9699;DHT22;10089;47.876;8.346;2022-08-01T05:41:52;20.80;99.90
9699;DHT22;10089;47.876;8.346;2022-08-01T05:44:18;20.90;99.90
9699;DHT22;10089;47.876;8.346;2022-08-01T05:46:44;21.70;99.90
9699;DHT22;10089;47.876;8.346;2022-08-01T05:49:10;22.10;99.90
9699;DHT22;10089;47.876;8.346;2022-08-01T05:51:35;22.40;99.90
9699;DHT22;10089;47.876;8.346;2022-08-01T05:54:01;22.70;99.90
9699;DHT22;10089;47.876;8.346;2022-08-01T05:56:28;22.60;99.90
9699;DHT22;10089;47.876;8.346;2022-08-01T05:58:53;22.90;99.90
9699;DHT22;10089;47.876;8.346;2022-08-01T06:01:19;22.90;99.90
9699;DHT22;10089;47.876;8.346;2022-08-01T06:03:45;23.20;99.90
9699;DHT22;10089;47.876;8.346;2022-08-01T06:06:11;23.40;99.90
9699;DHT22;10089;47.876;8.346;2022-08-01T06:08:37;23.60;99.90
9699;DHT22;10089;47.876;8.346;2022-08-01T06:11:03;23.50;99.90
9699;DHT22;10089;47.876;8.346;2022-08-01T06:13:28;22.50;99.90
9699;DHT22;10089;47.876;8.346;2022-08-01T06:15:54;23.20;99.90
9699;DHT22;10089;47.876;8.346;2022-08-01T06:18:20;22.10;99.90
9699;DHT22;10089;47.876;8.346;2022-08-01T06:20:46;22.60;99.90
9699;DHT22;10089;47.876;8.346;2022-08-01T06:23:11;23.40;99.90
9699;DHT22;10089;47.876;8.346;2022-08-01T06:25:40;24.20;99.90
9699;DHT22;10089;47.876;8.346;2022-08-01T06:28:06;24.30;99.90
9699;DHT22;10089;47.876;8.346;2022-08-01T06:30:32;24.40;99.90
9699;DHT22;10089;47.876;8.346;2022-08-01T06:32:58;25.00;99.90
9699;DHT22;10089;47.876;8.346;2022-08-01T06:35:26;25.00;99.90
9699;DHT22;10089;47.876;8.346;2022-08-01T06:37:52;25.60;99.90
9699;DHT22;10089;47.876;8.346;2022-08-01T06:40:18;25.50;99.90
9699;DHT22;10089;47.876;8.346;2022-08-01T06:42:44;25.90;99.90
9699;DHT22;10089;47.876;8.346;2022-08-01T06:45:12;26.30;99.90
9699;DHT22;10089;47.876;8.346;2022-08-01T06:47:39;26.10;99.90
9699;DHT22;10089;47.876;8.346;2022-08-01T06:50:06;26.30;99.90
9699;DHT22;10089;47.876;8.346;2022-08-01T06:52:34;26.20;99.90
9699;DHT22;10089;47.876;8.346;2022-08-01T06:54:59;26.50;99.10
9699;DHT22;10089;47.876;8.346;2022-08-01T06:57:25;26.40;98.70
9699;DHT22;10089;47.876;8.346;2022-08-01T06:59:52;26.60;96.30
9699;DHT22;10089;47.876;8.346;2022-08-01T07:02:18;26.80;95.10
9699;DHT22;10089;47.876;8.346;2022-08-01T07:04:43;27.10;95.10
9699;DHT22;10089;47.876;8.346;2022-08-01T07:07:09;27.20;95.60
9699;DHT22;10089;47.876;8.346;2022-08-01T07:09:34;27.10;93.70
9699;DHT22;10089;47.876;8.346;2022-08-01T07:12:00;26.90;94.50
9699;DHT22;10089;47.876;8.346;2022-08-01T07:14:26;26.70;95.10
9699;DHT22;10089;47.876;8.346;2022-08-01T07:16:51;27.00;95.40
9699;DHT22;10089;47.876;8.346;2022-08-01T07:19:18;27.00;95.60
9699;DHT22;10089;47.876;8.346;2022-08-01T07:21:44;27.00;95.50
9699;DHT22;10089;47.876;8.346;2022-08-01T07:24:11;26.70;94.30
9699;DHT22;10089;47.876;8.346;2022-08-01T07:26:38;26.60;94.80
9699;DHT22;10089;47.876;8.346;2022-08-01T07:29:04;26.10;94.30
9699;DHT22;10089;47.876;8.346;2022-08-01T07:31:30;26.20;94.80
9699;DHT22;10089;47.876;8.346;2022-08-01T07:33:56;25.20;94.50
9699;DHT22;10089;47.876;8.346;2022-08-01T07:36:21;25.50;95.90
9699;DHT22;10089;47.876;8.346;2022-08-01T07:38:47;26.60;95.40
9699;DHT22;10089;47.876;8.346;2022-08-01T07:41:13;26.80;93.00
9699;DHT22;10089;47.876;8.346;2022-08-01T07:43:39;27.20;92.40
9699;DHT22;10089;47.876;8.346;2022-08-01T07:46:05;27.50;91.10
9699;DHT22;10089;47.876;8.346;2022-08-01T07:48:30;27.70;91.30
9699;DHT22;10089;47.876;8.346;2022-08-01T07:50:56;27.80;90.30
9699;DHT22;10089;47.876;8.346;2022-08-01T07:53:22;28.40;89.40
9699;DHT22;10089;47.876;8.346;2022-08-01T07:55:48;28.30;88.40
9699;DHT22;10089;47.876;8.346;2022-08-01T07:58:15;28.00;87.80
9699;DHT22;10089;47.876;8.346;2022-08-01T08:00:41;28.00;89.10
9699;DHT22;10089;47.876;8.346;2022-08-01T08:03:06;28.40;87.10
9699;DHT22;10089;47.876;8.346;2022-08-01T08:05:32;28.30;84.30
9699;DHT22;10089;47.876;8.346;2022-08-01T08:08:04;28.20;85.70
9699;DHT22;10089;47.876;8.346;2022-08-01T08:10:30;28.20;84.20
9699;DHT22;10089;47.876;8.346;2022-08-01T08:12:55;28.00;85.80
9699;DHT22;10089;47.876;8.346;2022-08-01T08:15:21;28.00;85.20
9699;DHT22;10089;47.876;8.346;2022-08-01T08:17:47;27.70;83.10
9699;DHT22;10089;47.876;8.346;2022-08-01T08:20:13;26.90;86.20
9699;DHT22;10089;47.876;8.346;2022-08-01T08:22:39;27.20;87.80
9699;DHT22;10089;47.876;8.346;2022-08-01T08:25:05;28.00;86.30
9699;DHT22;10089;47.876;8.346;2022-08-01T08:27:30;27.40;83.80
9699;DHT22;10089;47.876;8.346;2022-08-01T08:29:56;28.20;86.30
9699;DHT22;10089;47.876;8.346;2022-08-01T08:32:22;28.20;84.30
9699;DHT22;10089;47.876;8.346;2022-08-01T08:34:47;27.10;86.10
9699;DHT22;10089;47.876;8.346;2022-08-01T08:37:13;26.90;85.70
9699;DHT22;10089;47.876;8.346;2022-08-01T08:39:39;27.70;86.40
9699;DHT22;10089;47.876;8.346;2022-08-01T08:42:06;28.70;85.40
9699;DHT22;10089;47.876;8.346;2022-08-01T08:44:31;28.40;81.60
9699;DHT22;10089;47.876;8.346;2022-08-01T08:46:57;27.90;83.00
9699;DHT22;10089;47.876;8.346;2022-08-01T08:49:24;28.00;83.30
9699;DHT22;10089;47.876;8.346;2022-08-01T08:51:52;28.80;81.80
9699;DHT22;10089;47.876;8.346;2022-08-01T08:54:22;28.80;80.60
9699;DHT22;10089;47.876;8.346;2022-08-01T08:56:49;29.00;82.20
9699;DHT22;10089;47.876;8.346;2022-08-01T08:59:15;29.60;79.50
9699;DHT22;10089;47.876;8.346;2022-08-01T09:01:42;29.50;76.30
9699;DHT22;10089;47.876;8.346;2022-08-01T09:04:09;28.60;79.90
9699;DHT22;10089;47.876;8.346;2022-08-01T09:06:35;28.80;79.70
9699;DHT22;10089;47.876;8.346;2022-08-01T09:09:00;28.10;79.10
9699;DHT22;10089;47.876;8.346;2022-08-01T09:11:26;28.10;80.20
9699;DHT22;10089;47.876;8.346;2022-08-01T09:14:11;28.50;78.80
9699;DHT22;10089;47.876;8.346;2022-08-01T09:16:40;27.90;80.50
9699;DHT22;10089;47.876;8.346;2022-08-01T09:19:16;28.40;79.80
9699;DHT22;10089;47.876;8.346;2022-08-01T09:22:02;28.40;78.20
9699;DHT22;10089;47.876;8.346;2022-08-01T09:24:29;28.30;79.50
9699;DHT22;10089;47.876;8.346;2022-08-01T09:26:55;28.20;78.10
9699;DHT22;10089;47.876;8.346;2022-08-01T09:29:28;28.20;78.60
9699;DHT22;10089;47.876;8.346;2022-08-01T09:31:54;28.00;79.40
9699;DHT22;10089;47.876;8.346;2022-08-01T09:34:24;28.70;78.60
9699;DHT22;10089;47.876;8.346;2022-08-01T09:36:51;29.40;77.50
9699;DHT22;10089;47.876;8.346;2022-08-01T09:39:17;29.50;75.80
9699;DHT22;10089;47.876;8.346;2022-08-01T09:41:43;28.50;76.60
9699;DHT22;10089;47.876;8.346;2022-08-01T09:44:09;29.20;77.10
9699;DHT22;10089;47.876;8.346;2022-08-01T09:46:35;29.00;75.80
9699;DHT22;10089;47.876;8.346;2022-08-01T09:49:03;29.60;76.60
9699;DHT22;10089;47.876;8.346;2022-08-01T09:51:36;29.50;74.50
9699;DHT22;10089;47.876;8.346;2022-08-01T09:54:05;30.10;73.20
9699;DHT22;10089;47.876;8.346;2022-08-01T09:56:38;29.20;71.70
9699;DHT22;10089;47.876;8.346;2022-08-01T09:59:04;29.10;74.00
9699;DHT22;10089;47.876;8.346;2022-08-01T10:01:48;28.80;73.90
9699;DHT22;10089;47.876;8.346;2022-08-01T10:04:17;28.90;71.00
9699;DHT22;10089;47.876;8.346;2022-08-01T10:06:49;29.40;70.20
9699;DHT22;10089;47.876;8.346;2022-08-01T10:09:44;29.20;72.50
9699;DHT22;10089;47.876;8.346;2022-08-01T10:12:13;28.40;69.50
9699;DHT22;10089;47.876;8.346;2022-08-01T10:14:40;28.70;70.70
9699;DHT22;10089;47.876;8.346;2022-08-01T10:17:08;27.50;73.30
9699;DHT22;10089;47.876;8.346;2022-08-01T10:19:34;28.40;71.60
9699;DHT22;10089;47.876;8.346;2022-08-01T10:22:01;28.40;73.30
9699;DHT22;10089;47.876;8.346;2022-08-01T10:24:30;28.10;72.60
9699;DHT22;10089;47.876;8.346;2022-08-01T10:27:03;28.70;70.60
9699;DHT22;10089;47.876;8.346;2022-08-01T10:29:31;28.60;70.10
9699;DHT22;10089;47.876;8.346;2022-08-01T10:31:59;28.80;70.10
9699;DHT22;10089;47.876;8.346;2022-08-01T10:34:25;28.90;71.00
9699;DHT22;10089;47.876;8.346;2022-08-01T10:36:52;28.50;68.70
9699;DHT22;10089;47.876;8.346;2022-08-01T10:39:17;28.40;69.50
9699;DHT22;10089;47.876;8.346;2022-08-01T10:41:44;28.30;68.00
9699;DHT22;10089;47.876;8.346;2022-08-01T10:44:10;28.10;69.60
9699;DHT22;10089;47.876;8.346;2022-08-01T10:46:39;28.30;68.90
9699;DHT22;10089;47.876;8.346;2022-08-01T10:49:10;27.50;71.00
9699;DHT22;10089;47.876;8.346;2022-08-01T10:51:37;27.70;70.60
9699;DHT22;10089;47.876;8.346;2022-08-01T10:54:05;27.70;69.50
9699;DHT22;10089;47.876;8.346;2022-08-01T10:59:06;27.80;67.40
9699;DHT22;10089;47.876;8.346;2022-08-01T11:01:32;28.20;67.10
9699;DHT22;10089;47.876;8.346;2022-08-01T11:04:03;28.20;68.50
9699;DHT22;10089;47.876;8.346;2022-08-01T11:08:58;29.00;66.00
9699;DHT22;10089;47.876;8.346;2022-08-01T11:11:24;28.60;67.30
9699;DHT22;10089;47.876;8.346;2022-08-01T11:16:33;28.40;64.70
9699;DHT22;10089;47.876;8.346;2022-08-01T11:18:59;28.20;64.20
9699;DHT22;10089;47.876;8.346;2022-08-01T11:24:09;27.90;65.50
9699;DHT22;10089;47.876;8.346;2022-08-01T11:26:35;27.90;65.70
9699;DHT22;10089;47.876;8.346;2022-08-01T11:29:11;28.00;66.20
9699;DHT22;10089;47.876;8.346;2022-08-01T11:31:36;28.00;66.30
9699;DHT22;10089;47.876;8.346;2022-08-01T11:34:02;27.80;64.50
9699;DHT22;10089;47.876;8.346;2022-08-01T11:36:28;27.50;65.80
9699;DHT22;10089;47.876;8.346;2022-08-01T11:43:59;27.40;66.70
9699;DHT22;10089;47.876;8.346;2022-08-01T11:51:47;27.30;67.70
9699;DHT22;10089;47.876;8.346;2022-08-01T11:54:13;27.40;69.40
9699;DHT22;10089;47.876;8.346;2022-08-01T11:56:38;27.50;67.50
9699;DHT22;10089;47.876;8.346;2022-08-01T11:59:05;27.70;67.50
9699;DHT22;10089;47.876;8.346;2022-08-01T12:01:31;27.80;66.30
9699;DHT22;10089;47.876;8.346;2022-08-01T12:03:57;27.80;64.40
9699;DHT22;10089;47.876;8.346;2022-08-01T12:06:28;27.90;66.30
9699;DHT22;10089;47.876;8.346;2022-08-01T12:08:54;27.90;64.80
9699;DHT22;10089;47.876;8.346;2022-08-01T12:11:20;27.40;63.80
9699;DHT22;10089;47.876;8.346;2022-08-01T12:13:46;27.40;65.20
9699;DHT22;10089;47.876;8.346;2022-08-01T12:16:13;27.60;65.20
9699;DHT22;10089;47.876;8.346;2022-08-01T12:18:42;27.50;64.30
9699;DHT22;10089;47.876;8.346;2022-08-01T12:21:08;27.70;64.80
9699;DHT22;10089;47.876;8.346;2022-08-01T12:23:34;28.20;63.20
9699;DHT22;10089;47.876;8.346;2022-08-01T12:26:00;28.00;62.70
9699;DHT22;10089;47.876;8.346;2022-08-01T12:28:26;27.90;63.20
9699;DHT22;10089;47.876;8.346;2022-08-01T12:30:52;28.20;62.90
9699;DHT22;10089;47.876;8.346;2022-08-01T12:33:18;28.40;61.20
9699;DHT22;10089;47.876;8.346;2022-08-01T12:35:44;28.80;60.40
9699;DHT22;10089;47.876;8.346;2022-08-01T12:38:17;29.50;59.10
9699;DHT22;10089;47.876;8.346;2022-08-01T12:40:44;29.90;57.60
9699;DHT22;10089;47.876;8.346;2022-08-01T12:43:10;30.20;56.50
9699;DHT22;10089;47.876;8.346;2022-08-01T12:45:41;30.60;54.60
9699;DHT22;10089;47.876;8.346;2022-08-01T12:48:10;30.50;55.00
9699;DHT22;10089;47.876;8.346;2022-08-01T12:50:40;29.50;55.20
9699;DHT22;10089;47.876;8.346;2022-08-01T12:53:07;29.00;54.40
9699;DHT22;10089;47.876;8.346;2022-08-01T12:55:33;28.80;55.40
9699;DHT22;10089;47.876;8.346;2022-08-01T12:58:03;28.80;55.50
9699;DHT22;10089;47.876;8.346;2022-08-01T13:00:29;29.40;54.40
9699;DHT22;10089;47.876;8.346;2022-08-01T13:03:11;30.10;52.20
9699;DHT22;10089;47.876;8.346;2022-08-01T13:05:53;30.20;51.20
9699;DHT22;10089;47.876;8.346;2022-08-01T13:08:22;30.50;50.20
9699;DHT22;10089;47.876;8.346;2022-08-01T13:10:48;30.10;49.40
9699;DHT22;10089;47.876;8.346;2022-08-01T13:13:15;30.50;51.60
9699;DHT22;10089;47.876;8.346;2022-08-01T13:15:42;30.70;50.40
9699;DHT22;10089;47.876;8.346;2022-08-01T13:18:41;31.10;50.70
9699;DHT22;10089;47.876;8.346;2022-08-01T13:21:17;30.20;50.70
9699;DHT22;10089;47.876;8.346;2022-08-01T13:24:09;29.90;50.60
9699;DHT22;10089;47.876;8.346;2022-08-01T13:26:58;29.90;51.50
9699;DHT22;10089;47.876;8.346;2022-08-01T13:29:39;30.20;51.20
9699;DHT22;10089;47.876;8.346;2022-08-01T13:32:21;29.90;50.10
9699;DHT22;10089;47.876;8.346;2022-08-01T13:34:47;29.30;50.60
9699;DHT22;10089;47.876;8.346;2022-08-01T13:37:13;28.80;52.00
9699;DHT22;10089;47.876;8.346;2022-08-01T13:39:38;28.70;52.40
9699;DHT22;10089;47.876;8.346;2022-08-01T13:42:12;29.00;53.00
9699;DHT22;10089;47.876;8.346;2022-08-01T13:44:38;29.10;52.70
9699;DHT22;10089;47.876;8.346;2022-08-01T13:47:04;29.50;51.50
9699;DHT22;10089;47.876;8.346;2022-08-01T13:49:30;29.80;51.90
9699;DHT22;10089;47.876;8.346;2022-08-01T13:51:55;29.90;50.30
9699;DHT22;10089;47.876;8.346;2022-08-01T13:54:21;30.00;50.40
9699;DHT22;10089;47.876;8.346;2022-08-01T13:56:49;30.10;50.30
9699;DHT22;10089;47.876;8.346;2022-08-01T13:59:14;29.20;50.60
9699;DHT22;10089;47.876;8.346;2022-08-01T14:01:40;28.70;51.30
9699;DHT22;10089;47.876;8.346;2022-08-01T14:04:06;29.00;51.70
9699;DHT22;10089;47.876;8.346;2022-08-01T14:06:32;28.80;52.20
9699;DHT22;10089;47.876;8.346;2022-08-01T14:08:58;28.60;51.80
9699;DHT22;10089;47.876;8.346;2022-08-01T14:11:24;28.80;52.60
9699;DHT22;10089;47.876;8.346;2022-08-01T14:13:50;29.00;52.20
9699;DHT22;10089;47.876;8.346;2022-08-01T14:16:17;28.80;52.00
9699;DHT22;10089;47.876;8.346;2022-08-01T14:18:42;28.30;52.40
9699;DHT22;10089;47.876;8.346;2022-08-01T14:21:08;28.30;52.90
9699;DHT22;10089;47.876;8.346;2022-08-01T14:23:34;28.50;53.40
9699;DHT22;10089;47.876;8.346;2022-08-01T14:25:59;28.70;52.40
9699;DHT22;10089;47.876;8.346;2022-08-01T14:28:25;28.70;53.60
9699;DHT22;10089;47.876;8.346;2022-08-01T14:30:53;28.70;53.40
9699;DHT22;10089;47.876;8.346;2022-08-01T14:33:21;28.30;53.80
9699;DHT22;10089;47.876;8.346;2022-08-01T14:35:47;28.60;53.80
9699;DHT22;10089;47.876;8.346;2022-08-01T14:38:13;28.60;54.20
9699;DHT22;10089;47.876;8.346;2022-08-01T14:40:38;28.40;53.80
9699;DHT22;10089;47.876;8.346;2022-08-01T14:43:04;28.60;54.90
9699;DHT22;10089;47.876;8.346;2022-08-01T14:45:29;28.80;54.00
9699;DHT22;10089;47.876;8.346;2022-08-01T14:47:55;28.80;54.20
9699;DHT22;10089;47.876;8.346;2022-08-01T14:50:21;28.80;54.00
9699;DHT22;10089;47.876;8.346;2022-08-01T14:52:47;28.70;54.60
9699;DHT22;10089;47.876;8.346;2022-08-01T14:55:12;29.60;55.60
9699;DHT22;10089;47.876;8.346;2022-08-01T14:57:38;28.20;55.90
9699;DHT22;10089;47.876;8.346;2022-08-01T15:00:05;28.20;56.00
9699;DHT22;10089;47.876;8.346;2022-08-01T15:02:31;28.30;56.60
9699;DHT22;10089;47.876;8.346;2022-08-01T15:04:57;28.20;55.50
9699;DHT22;10089;47.876;8.346;2022-08-01T15:07:22;28.30;55.60
9699;DHT22;10089;47.876;8.346;2022-08-01T15:09:48;28.20;55.50
9699;DHT22;10089;47.876;8.346;2022-08-01T15:12:13;28.20;56.40
9699;DHT22;10089;47.876;8.346;2022-08-01T15:14:39;28.30;55.80
9699;DHT22;10089;47.876;8.346;2022-08-01T15:17:25;28.10;57.60
9699;DHT22;10089;47.876;8.346;2022-08-01T15:19:53;27.90;58.20
9699;DHT22;10089;47.876;8.346;2022-08-01T15:22:20;27.80;58.60
9699;DHT22;10089;47.876;8.346;2022-08-01T15:24:50;27.70;59.10
9699;DHT22;10089;47.876;8.346;2022-08-01T15:27:17;27.50;59.30
9699;DHT22;10089;47.876;8.346;2022-08-01T15:29:43;27.40;60.40
9699;DHT22;10089;47.876;8.346;2022-08-01T15:32:09;27.40;60.40
9699;DHT22;10089;47.876;8.346;2022-08-01T15:34:36;27.40;61.80
9699;DHT22;10089;47.876;8.346;2022-08-01T15:37:03;27.40;61.60
9699;DHT22;10089;47.876;8.346;2022-08-01T15:39:30;27.50;62.00
9699;DHT22;10089;47.876;8.346;2022-08-01T15:42:03;27.30;62.30
9699;DHT22;10089;47.876;8.346;2022-08-01T15:44:30;27.20;63.20
9699;DHT22;10089;47.876;8.346;2022-08-01T15:46:56;27.00;64.00
9699;DHT22;10089;47.876;8.346;2022-08-01T15:49:21;26.90;64.20
9699;DHT22;10089;47.876;8.346;2022-08-01T15:51:48;26.80;64.50
9699;DHT22;10089;47.876;8.346;2022-08-01T15:54:15;26.70;64.70
9699;DHT22;10089;47.876;8.346;2022-08-01T15:56:41;26.70;65.40
9699;DHT22;10089;47.876;8.346;2022-08-01T15:59:06;26.70;65.50
9699;DHT22;10089;47.876;8.346;2022-08-01T16:01:32;26.80;64.20
9699;DHT22;10089;47.876;8.346;2022-08-01T16:03:58;27.00;63.60
9699;DHT22;10089;47.876;8.346;2022-08-01T16:06:24;27.30;64.70
9699;DHT22;10089;47.876;8.346;2022-08-01T16:08:50;27.20;65.00
9699;DHT22;10089;47.876;8.346;2022-08-01T16:11:16;27.20;65.10
9699;DHT22;10089;47.876;8.346;2022-08-01T16:13:42;27.10;65.40
9699;DHT22;10089;47.876;8.346;2022-08-01T16:16:08;27.00;64.60
9699;DHT22;10089;47.876;8.346;2022-08-01T16:18:34;27.00;64.80
9699;DHT22;10089;47.876;8.346;2022-08-01T16:20:59;27.00;65.20
9699;DHT22;10089;47.876;8.346;2022-08-01T16:23:25;27.20;65.40